createdAt,value
2018-11-22T00:00:54.556Z,38.73
2018-11-22T00:04:03.594Z,39.73
2018-11-22T00:06:53.620Z,42.60
2018-11-22T00:09:42.827Z,42.40
2018-11-22T00:12:34.088Z,44.43
2018-11-22T00:15:24.312Z,41.90
2018-11-22T00:18:14.282Z,43.17
2018-11-22T00:21:03.435Z,45.63
2018-11-22T00:23:52.605Z,49.50
2018-11-22T00:26:41.717Z,42.83
2018-11-22T00:29:31.220Z,39.97
2018-11-22T00:32:20.458Z,38.43
2018-11-22T00:35:11.380Z,39.00
2018-11-22T00:38:00.576Z,37.97
2018-11-22T00:40:49.666Z,38.13
2018-11-22T00:43:39.806Z,39.70
2018-11-22T00:46:29.882Z,39.30
2018-11-22T00:54:39.723Z,42.57
2018-11-22T00:57:29.161Z,43.17
2018-11-22T01:00:29.322Z,45.70
2018-11-22T01:03:18.710Z,47.70
2018-11-22T01:06:00.744Z,47.27
2018-11-22T01:08:50.172Z,49.23
2018-11-22T01:11:32.372Z,55.10
2018-11-22T01:14:21.804Z,50.87
2018-11-22T01:17:04.151Z,53.90
2018-11-22T01:19:53.230Z,59.97
2018-11-22T01:22:35.331Z,57.70
2018-11-22T01:25:24.784Z,56.50
2018-11-22T01:28:11.629Z,61.53
2018-11-22T01:31:00.727Z,57.00
2018-11-22T01:33:42.647Z,62.00
2018-11-22T01:36:31.711Z,65.73
2018-11-22T01:39:13.670Z,63.20
2018-11-22T01:42:02.799Z,60.53
2018-11-22T01:44:45.135Z,54.47
2018-11-22T01:47:34.181Z,58.40
2018-11-22T01:50:23.236Z,59.67
2018-11-22T01:53:05.615Z,62.33
2018-11-22T01:55:54.801Z,60.30
2018-11-22T01:58:43.915Z,55.87
2018-11-22T02:01:33.126Z,56.87
2018-11-22T02:04:22.223Z,56.60
2018-11-22T02:07:11.519Z,56.83
2018-11-22T02:10:09.244Z,62.87
2018-11-22T02:12:58.431Z,53.87
2018-11-22T02:15:47.433Z,47.03
2018-11-22T02:18:30.023Z,45.30
2018-11-22T02:21:19.119Z,43.90
2018-11-22T02:24:08.299Z,44.43
2018-11-22T02:26:57.457Z,40.77
2018-11-22T02:29:46.551Z,39.00
2018-11-22T02:32:35.690Z,40.83
2018-11-22T02:35:25.220Z,33.80
2018-11-22T02:38:14.426Z,37.80
2018-11-22T02:41:03.595Z,33.30
2018-11-22T02:43:52.706Z,35.83
2018-11-22T02:46:42.039Z,37.50
2018-11-22T02:49:31.547Z,41.10
2018-11-22T02:52:23.485Z,39.80
2018-11-22T02:55:13.469Z,37.17
2018-11-22T02:57:55.498Z,38.70
2018-11-22T03:03:33.727Z,41.70
2018-11-22T03:06:22.776Z,45.73
2018-11-22T03:09:07.748Z,44.73
2018-11-22T03:11:56.808Z,48.57
2018-11-22T03:14:39.318Z,49.43
2018-11-22T03:17:28.396Z,48.00
2018-11-22T03:20:11.655Z,51.93
2018-11-22T03:23:00.742Z,50.53
2018-11-22T03:25:42.866Z,52.00
2018-11-22T03:28:31.957Z,54.60
2018-11-22T03:31:13.775Z,53.00
2018-11-22T03:34:02.804Z,55.53
2018-11-22T03:36:45.178Z,54.97
2018-11-22T03:39:34.240Z,51.73
2018-11-22T03:42:16.685Z,58.57
2018-11-22T03:45:06.299Z,56.20
2018-11-22T03:47:48.581Z,62.90
2018-11-22T03:50:37.749Z,64.00
2018-11-22T03:53:19.466Z,63.97
2018-11-22T03:56:08.954Z,57.43
2018-11-22T03:58:51.410Z,61.23
2018-11-22T04:01:40.487Z,71.80
2018-11-22T04:04:22.520Z,68.00
2018-11-22T04:07:11.585Z,65.70
2018-11-22T04:10:00.680Z,72.40
2018-11-22T04:12:42.713Z,64.23
2018-11-22T04:15:32.043Z,62.80
2018-11-22T04:18:21.133Z,71.17
2018-11-22T04:21:10.202Z,65.23
2018-11-22T04:23:52.364Z,65.33
2018-11-22T04:26:41.938Z,67.80
2018-11-22T04:29:27.682Z,61.00
2018-11-22T04:32:16.817Z,64.27
2018-11-22T04:34:58.269Z,70.07
2018-11-22T04:37:47.327Z,71.07
2018-11-22T04:40:30.344Z,69.87
2018-11-22T04:43:19.421Z,64.00
2018-11-22T04:46:02.697Z,66.87
2018-11-22T04:48:51.821Z,63.53
2018-11-22T04:51:38.059Z,63.57
2018-11-22T04:54:27.161Z,67.83
2018-11-22T04:57:10.743Z,59.40
2018-11-22T04:59:59.953Z,57.73
2018-11-22T05:02:42.982Z,58.30
2018-11-22T05:05:32.189Z,57.70
2018-11-22T05:08:21.397Z,64.27
2018-11-22T05:14:00.118Z,65.23
2018-11-22T05:16:49.613Z,63.73
2018-11-22T05:19:35.957Z,67.60
2018-11-22T05:22:25.362Z,70.77
2018-11-22T05:25:12.023Z,68.27
2018-11-22T05:27:53.840Z,77.43
2018-11-22T05:30:42.891Z,88.70
2018-11-22T05:33:24.531Z,77.23
2018-11-22T05:36:13.598Z,145.93
2018-11-22T05:38:55.418Z,158.43
2018-11-22T05:41:44.799Z,174.13
2018-11-22T05:44:26.627Z,343.37
2018-11-22T05:47:15.753Z,441.17
2018-11-22T05:49:58.065Z,425.37
2018-11-22T05:52:47.695Z,226.10
2018-11-22T05:55:31.657Z,405.33
2018-11-22T05:58:20.743Z,293.67
2018-11-22T06:01:03.153Z,300.77
2018-11-22T06:03:52.221Z,448.80
2018-11-22T06:06:36.279Z,367.07
2018-11-22T06:09:27.877Z,353.57
2018-11-22T06:12:10.579Z,396.40
2018-11-22T06:14:59.673Z,372.07
2018-11-22T06:17:43.671Z,199.40
2018-11-22T06:20:52.083Z,375.67
2018-11-22T06:23:36.285Z,485.23
2018-11-22T06:26:26.219Z,380.53
2018-11-22T06:29:08.023Z,313.83
2018-11-22T06:31:57.169Z,194.73
2018-11-22T06:34:38.797Z,636.33
2018-11-22T06:37:27.878Z,400.70
2018-11-22T06:40:10.725Z,171.03
2018-11-22T06:43:00.453Z,146.47
2018-11-22T06:45:42.594Z,143.60
2018-11-22T06:48:31.618Z,195.13
2018-11-22T06:51:13.383Z,212.60
2018-11-22T06:54:02.432Z,606.87
2018-11-22T06:56:44.485Z,272.47
2018-11-22T06:59:33.608Z,327.70
2018-11-22T07:02:15.431Z,205.80
2018-11-22T07:05:05.283Z,350.00
2018-11-22T07:07:47.457Z,460.73
2018-11-22T07:10:36.511Z,466.60
2018-11-22T07:13:18.596Z,328.00
2018-11-22T07:16:07.665Z,594.30
2018-11-22T07:18:49.953Z,214.20
2018-11-22T07:21:39.017Z,343.63
2018-11-22T07:27:38.352Z,275.33
2018-11-22T07:30:20.619Z,92.47
2018-11-22T07:33:10.767Z,204.50
2018-11-22T07:35:59.896Z,184.70
2018-11-22T07:38:48.986Z,86.97
2018-11-22T07:41:38.872Z,110.93
2018-11-22T07:44:22.418Z,197.87
2018-11-22T07:47:12.115Z,91.37
2018-11-22T07:56:00.079Z,55.40
2018-11-22T07:58:41.913Z,152.80
2018-11-22T08:01:31.150Z,62.57
2018-11-22T08:04:20.305Z,113.73
2018-11-22T08:07:09.555Z,144.80
2018-11-22T08:09:58.586Z,124.63
2018-11-22T08:12:48.470Z,444.03
2018-11-22T08:15:38.973Z,111.17
2018-11-22T08:18:08.729Z,107.30
2018-11-22T08:21:04.551Z,115.80
2018-11-22T08:23:40.207Z,237.63
2018-11-22T08:26:29.318Z,328.87
2018-11-22T08:29:11.323Z,178.90
2018-11-22T08:32:00.367Z,154.00
2018-11-22T08:34:42.726Z,455.63
2018-11-22T08:37:31.788Z,191.60
2018-11-22T08:40:39.407Z,127.60
2018-11-22T08:43:28.442Z,102.87
2018-11-22T08:46:10.233Z,104.40
2018-11-22T08:48:59.324Z,210.57
2018-11-22T08:51:41.136Z,243.33
2018-11-22T08:54:30.206Z,115.70
2018-11-22T08:57:11.802Z,104.93
2018-11-22T08:59:41.513Z,44.60
2018-11-22T09:02:30.532Z,54.40
2018-11-22T09:05:13.660Z,40.77
2018-11-22T09:08:02.765Z,40.90
2018-11-22T09:10:51.877Z,43.33
2018-11-22T09:13:40.914Z,45.97
2018-11-22T09:16:23.143Z,51.23
2018-11-22T09:19:12.197Z,53.77
2018-11-22T09:24:53.464Z,49.37
2018-11-22T09:27:43.160Z,66.73
2018-11-22T09:30:33.708Z,51.23
2018-11-22T09:33:17.158Z,49.90
2018-11-22T09:38:53.309Z,49.30
2018-11-22T09:41:40.039Z,51.53
2018-11-22T09:44:22.470Z,42.23
2018-11-22T09:47:11.520Z,43.03
2018-11-22T09:50:00.632Z,44.93
2018-11-22T09:52:50.529Z,45.63
2018-11-22T09:55:39.642Z,45.50
2018-11-22T09:58:28.737Z,41.90
2018-11-22T10:01:17.766Z,52.17
2018-11-22T10:04:06.968Z,49.27
2018-11-22T10:06:56.013Z,53.90
2018-11-22T10:09:38.248Z,64.10
2018-11-22T10:12:27.279Z,59.93
2018-11-22T10:15:17.926Z,55.93
2018-11-22T10:18:07.000Z,50.93
2018-11-22T10:20:49.288Z,50.13
2018-11-22T10:23:38.306Z,53.37
2018-11-22T10:26:20.050Z,48.70
2018-11-22T10:29:09.154Z,46.00
2018-11-22T10:31:51.413Z,44.97
2018-11-22T10:34:21.124Z,47.47
2018-11-22T10:37:10.199Z,42.33
2018-11-22T10:39:51.837Z,40.83
2018-11-22T10:42:42.025Z,43.83
2018-11-22T10:45:32.756Z,46.77
2018-11-22T10:48:21.944Z,40.30
2018-11-22T10:51:11.042Z,39.17
2018-11-22T10:54:00.072Z,62.33
2018-11-22T10:56:49.126Z,44.73
2018-11-22T10:59:30.836Z,43.80
2018-11-22T11:02:38.768Z,41.30
2018-11-22T11:05:39.618Z,42.97
2018-11-22T11:08:29.752Z,42.03
2018-11-22T11:11:11.718Z,41.23
2018-11-22T11:14:19.695Z,44.27
2018-11-22T11:17:01.567Z,43.27
2018-11-22T11:19:50.621Z,47.03
2018-11-22T11:22:33.354Z,45.27
2018-11-22T11:25:22.404Z,48.30
2018-11-22T11:28:04.074Z,47.77
2018-11-22T11:30:53.149Z,46.70
2018-11-22T11:33:35.381Z,47.53
2018-11-22T11:36:24.371Z,46.30
2018-11-22T11:39:07.281Z,47.80
2018-11-22T11:41:56.328Z,53.43
2018-11-22T11:44:38.847Z,52.20
2018-11-22T11:47:27.917Z,58.17
2018-11-22T11:53:10.233Z,47.23
2018-11-22T11:55:52.533Z,45.20
2018-11-22T11:58:41.737Z,46.87
2018-11-22T12:01:30.863Z,43.33
2018-11-22T12:04:19.989Z,45.93
2018-11-22T12:07:09.111Z,46.20
2018-11-22T12:09:58.216Z,51.00
2018-11-22T12:12:47.741Z,49.20
2018-11-22T12:15:36.855Z,50.13
2018-11-22T12:18:26.016Z,44.57
2018-11-22T12:21:15.137Z,46.70
2018-11-22T12:24:04.290Z,50.90
2018-11-22T12:26:53.423Z,45.97
2018-11-22T12:29:23.224Z,42.23
2018-11-22T12:32:13.101Z,42.30
2018-11-22T12:35:06.625Z,41.17
2018-11-22T12:38:15.694Z,43.40
2018-11-22T12:41:04.784Z,45.60
2018-11-22T12:43:53.989Z,43.47
2018-11-22T12:46:43.161Z,47.67
2018-11-22T12:49:32.336Z,48.50
2018-11-22T12:52:21.480Z,49.80
2018-11-22T12:55:11.371Z,46.37
2018-11-22T12:58:00.608Z,48.50
2018-11-22T13:00:49.751Z,48.40
2018-11-22T13:03:38.806Z,47.13
2018-11-22T13:06:28.030Z,45.17
2018-11-22T13:09:17.830Z,46.03
2018-11-22T13:12:06.904Z,47.00
2018-11-22T13:14:49.496Z,46.83
2018-11-22T13:17:38.810Z,48.70
2018-11-22T13:20:27.961Z,46.80
2018-11-22T13:23:17.074Z,43.60
2018-11-22T13:26:06.193Z,45.73
2018-11-22T13:28:55.487Z,42.30
2018-11-22T13:31:44.895Z,43.43
2018-11-22T13:34:34.403Z,46.60
2018-11-22T13:37:23.422Z,44.43
2018-11-22T13:40:13.265Z,45.17
2018-11-22T13:43:02.276Z,43.10
2018-11-22T13:45:44.051Z,45.43
2018-11-22T13:48:33.193Z,42.83
2018-11-22T13:51:15.045Z,43.83
2018-11-22T13:54:04.132Z,44.17
2018-11-22T13:56:46.131Z,44.07
2018-11-22T13:59:35.230Z,44.80
2018-11-22T14:02:17.361Z,46.23
2018-11-22T14:05:11.513Z,43.83
2018-11-22T14:07:48.713Z,45.63
2018-11-22T14:10:37.793Z,45.17
2018-11-22T14:13:19.897Z,45.93
2018-11-22T14:16:09.147Z,46.47
2018-11-22T14:18:58.287Z,49.70
2018-11-22T14:21:47.458Z,45.80
2018-11-22T14:24:36.595Z,43.87
2018-11-22T14:27:25.725Z,47.10
2018-11-22T14:30:33.777Z,46.97
2018-11-22T14:33:22.797Z,46.17
2018-11-22T14:36:11.815Z,43.30
2018-11-22T14:39:00.855Z,42.13
2018-11-22T14:41:43.465Z,43.70
2018-11-22T14:44:32.513Z,47.43
2018-11-22T14:47:14.581Z,48.57
2018-11-22T14:50:04.607Z,45.80
2018-11-22T14:52:47.966Z,46.60
2018-11-22T14:55:37.104Z,50.07
2018-11-22T14:58:19.106Z,52.03
2018-11-22T15:01:08.130Z,64.33
2018-11-22T15:03:49.991Z,60.77
2018-11-22T15:06:39.001Z,64.07
2018-11-22T15:09:21.359Z,60.10
2018-11-22T15:12:10.424Z,61.10
2018-11-22T15:14:52.116Z,64.10
2018-11-22T15:17:41.523Z,61.20
2018-11-22T15:20:24.297Z,61.37
2018-11-22T15:23:13.317Z,59.63
2018-11-22T15:25:55.227Z,62.20
2018-11-22T15:28:44.277Z,62.37
2018-11-22T15:31:33.328Z,63.57
2018-11-22T15:34:15.473Z,63.07
2018-11-22T15:37:04.576Z,62.27
2018-11-22T15:39:53.718Z,60.70
2018-11-22T15:42:43.380Z,67.97
2018-11-22T15:45:34.943Z,66.30
2018-11-22T15:48:22.082Z,60.57
2018-11-22T15:51:11.165Z,65.87
2018-11-22T15:54:00.262Z,59.37
2018-11-22T15:56:49.438Z,59.13
2018-11-22T15:59:38.708Z,67.03
2018-11-22T16:02:28.281Z,141.53
2018-11-22T16:05:17.928Z,57.87
2018-11-22T16:08:07.124Z,61.07
2018-11-22T16:10:56.263Z,64.87
2018-11-22T16:13:45.390Z,230.00
2018-11-22T16:16:34.551Z,399.13
2018-11-22T16:19:23.769Z,330.30
2018-11-22T16:22:12.876Z,85.47
2018-11-22T16:25:01.899Z,284.47
2018-11-22T16:27:51.006Z,297.60
2018-11-22T16:30:40.768Z,237.33
2018-11-22T16:33:22.530Z,191.97
2018-11-22T16:36:11.577Z,301.30
2018-11-22T16:38:53.455Z,246.73
2018-11-22T16:41:42.522Z,316.73
2018-11-22T16:44:24.417Z,238.83
2018-11-22T16:47:13.503Z,665.87
2018-11-22T16:49:55.906Z,547.43
2018-11-22T16:52:45.012Z,381.47
2018-11-22T16:58:37.096Z,727.87
2018-11-22T17:01:19.078Z,236.10
2018-11-22T17:04:08.189Z,160.30
2018-11-22T17:06:57.326Z,336.30
2018-11-22T17:09:46.425Z,87.53
2018-11-22T17:12:35.615Z,161.73
2018-11-22T17:15:26.293Z,169.63
2018-11-22T17:18:15.431Z,231.70
2018-11-22T17:21:04.542Z,230.27
2018-11-22T17:23:53.593Z,186.17
2018-11-22T17:26:35.793Z,317.27
2018-11-22T17:29:24.945Z,204.10
2018-11-22T17:32:14.027Z,315.73
2018-11-22T17:35:03.107Z,387.53
2018-11-22T17:37:52.757Z,303.57
2018-11-22T17:40:36.642Z,254.83
2018-11-22T17:43:25.688Z,324.37
2018-11-22T17:46:07.204Z,118.37
2018-11-22T17:51:58.405Z,384.80
2018-11-22T17:54:47.607Z,266.27
2018-11-22T17:57:36.671Z,495.23
2018-11-22T18:00:38.317Z,321.83
2018-11-22T18:03:27.425Z,253.43
2018-11-22T18:06:16.627Z,324.07
2018-11-22T18:09:26.261Z,207.90
2018-11-22T18:12:15.447Z,120.73
2018-11-22T18:15:04.642Z,372.43
2018-11-22T18:17:54.427Z,285.60
2018-11-22T18:20:43.559Z,268.80
2018-11-22T18:23:32.925Z,242.87
2018-11-22T18:28:53.717Z,297.03
2018-11-22T18:34:31.936Z,291.63
2018-11-22T18:37:14.445Z,189.73
2018-11-22T18:40:03.596Z,261.30
2018-11-22T18:42:53.677Z,261.77
2018-11-22T18:45:37.899Z,591.60
2018-11-22T18:48:21.142Z,341.57
2018-11-22T18:51:10.258Z,335.70
2018-11-22T18:53:59.398Z,352.53
2018-11-22T18:56:48.579Z,280.17
2018-11-22T18:59:38.118Z,240.40
2018-11-22T19:02:27.974Z,264.50
2018-11-22T19:05:17.722Z,228.80
2018-11-22T19:08:06.947Z,289.33
2018-11-22T19:10:57.364Z,171.20
2018-11-22T19:13:47.116Z,300.43
2018-11-22T19:16:39.256Z,482.77
2018-11-22T19:19:30.069Z,170.00
2018-11-22T19:22:20.118Z,215.20
2018-11-22T19:25:10.008Z,738.53
2018-11-22T19:28:00.283Z,324.73
2018-11-22T19:30:49.946Z,252.97
2018-11-22T19:33:40.040Z,856.87
2018-11-22T19:36:29.202Z,417.70
2018-11-22T19:39:18.407Z,393.20
2018-11-22T19:44:50.833Z,317.43
2018-11-22T19:47:40.438Z,593.57
2018-11-22T19:50:23.889Z,177.30
2018-11-22T19:56:06.008Z,551.73
2018-11-22T19:58:55.368Z,528.90
2018-11-22T20:01:44.432Z,177.00
2018-11-22T20:04:33.521Z,266.63
2018-11-22T20:07:22.590Z,384.73
2018-11-22T20:10:04.638Z,589.57
2018-11-22T20:12:53.710Z,869.03
2018-11-22T20:15:36.732Z,197.53
2018-11-22T20:18:25.799Z,267.90
2018-11-22T20:21:07.960Z,280.60
2018-11-22T20:23:57.137Z,370.97
2018-11-22T20:26:39.349Z,122.07
2018-11-22T20:29:28.767Z,388.77
2018-11-22T20:32:10.710Z,318.97
2018-11-22T20:40:31.634Z,262.63
2018-11-22T20:43:14.129Z,389.07
2018-11-22T20:46:22.167Z,284.97
2018-11-22T20:49:04.285Z,182.07
2018-11-22T20:51:53.359Z,348.23
2018-11-22T20:54:23.122Z,192.03
2018-11-22T20:57:12.235Z,283.20
2018-11-22T20:59:54.444Z,184.47
2018-11-22T21:02:43.535Z,326.47
2018-11-22T21:05:32.769Z,234.77
2018-11-22T21:08:14.641Z,435.73
2018-11-22T21:11:03.773Z,575.20
2018-11-22T21:13:52.953Z,504.00
2018-11-22T21:16:42.134Z,160.77
2018-11-22T21:19:31.289Z,318.83
2018-11-22T21:22:20.603Z,391.63
2018-11-22T21:25:12.015Z,459.53
2018-11-22T21:28:01.225Z,279.43
2018-11-22T21:30:50.358Z,380.00
2018-11-22T21:33:39.910Z,383.13
2018-11-22T21:36:29.683Z,563.93
2018-11-22T21:39:18.831Z,401.83
2018-11-22T21:42:07.973Z,243.57
2018-11-22T21:44:50.094Z,374.70
2018-11-22T21:47:39.289Z,201.80
2018-11-22T21:50:29.003Z,140.80
2018-11-22T21:53:18.328Z,226.80
2018-11-22T21:56:07.527Z,154.20
2018-11-22T21:58:56.769Z,231.53
2018-11-22T22:01:45.929Z,186.37
2018-11-22T22:04:35.107Z,269.43
2018-11-22T22:07:24.256Z,184.73
2018-11-22T22:10:13.482Z,217.83
2018-11-22T22:13:02.664Z,257.73
2018-11-22T22:15:51.865Z,408.13
2018-11-22T22:21:25.334Z,194.50
2018-11-22T22:24:14.448Z,143.50
2018-11-22T22:26:56.627Z,236.10
2018-11-22T22:29:45.694Z,198.00
2018-11-22T22:32:27.612Z,258.40
2018-11-22T22:35:16.726Z,310.37
2018-11-22T22:37:59.671Z,266.13
2018-11-22T22:40:43.167Z,691.43
2018-11-22T22:48:54.084Z,567.63
2018-11-22T22:51:43.253Z,282.00
2018-11-22T22:54:32.424Z,273.53
2018-11-22T22:57:21.692Z,400.70
2018-11-22T23:03:27.997Z,153.63
2018-11-22T23:06:17.266Z,382.70
2018-11-22T23:12:17.020Z,560.90
2018-11-22T23:14:59.095Z,428.87
2018-11-22T23:17:49.721Z,166.63
2018-11-22T23:23:31.556Z,442.57
2018-11-22T23:29:26.660Z,614.13
2018-11-22T23:32:10.854Z,317.13
2018-11-22T23:35:00.309Z,356.50
2018-11-22T23:40:34.572Z,116.10
2018-11-22T23:43:24.130Z,688.37
2018-11-22T23:46:10.654Z,473.83
2018-11-22T23:51:56.506Z,447.77
2018-11-22T23:54:45.669Z,479.33
2018-11-22T23:57:35.080Z,569.70
